La Fayette, GA (30728)

2:18 AM EDT on May 26, 2015 (GMT -0400)
RAWS | | Change Station
CLOSE
Current Station
Personal Weather Station
Location: La Fayette, GA
Elevation: 1151 ft
Nearby Weather Stations

Elev 1151 ft 34.70 °N, 85.17 °W | Updated 1 hour ago

Overcast
Overcast
66 °F
Feels Like 66 °F
N
4
Wind Variable Wind from SE
Gusts 7.0 mph

Today
High -- | Low -- °F
--% Chance of Precip.
Yesterday
High -- | Low -- °F
Precip. -- in
6:31 AM 8:45 PM
First Quarter, 55% visible
Pressure 30.17 in
Visibility 10.0 miles
Clouds Scattered Clouds 300 ft
Mostly Cloudy 10000 ft
Overcast 12000 ft
Dew Point 66 °F
Humidity 100%
Rainfall in
Snow Depth Not available.
UV 0 out of 12
Pollen 5.20 out of 12
Air Quality Not available.
Flu Activity Sporadic
METAR KCHA 260553Z AUTO 00000KT 10SM SCT003 BKN100 OVC120 19/19 A3019 RMK AO2 SLP217 60004 T01940189 10200 20194 50000 $

More Conditions Fewer Conditions

Pressure 30.17 in
Visibility 10.0 miles
Clouds Scattered Clouds 300 ft
Mostly Cloudy 10000 ft
Overcast 12000 ft
Dew Point 66 °F
Humidity 100%
Rainfall in
Snow Depth Not available.
UV 0 out of 12
Pollen 5.20 out of 12
Air Quality Not available.
Flu Activity Sporadic
METAR KCHA 260553Z AUTO 00000KT 10SM SCT003 BKN100 OVC120 19/19 A3019 RMK AO2 SLP217 60004 T01940189 10200 20194 50000 $

More Conditions Fewer Conditions

10-Day Weather Forecast

Almanac

Astronomy

May. 26, 2015 Rise Set
Actual Time
Civil Twilight
Nautical Twilight
Astronomical Twilight
Moon
Length of Visible Light
Length of Day
Tomorrow will be .
, % of the Moon is Illuminated

Today's Extremes

State Highs State Lows

Community

WunderPhotos

Upload Photos

1,824,294 photos uploaded!

WunderBlogs® & News

Nearby

Air Quality

  Air Quality AQ Index Pollutant
Not available.

Snow Depth

Station Depth Elevation

Earthquake Activity

City Distance Mag. Time & Date
Minimum magnitude displayed is 2.5.

Coastal Water Temperatures

Place Temperature

Stations

Nearby Weather Stations

Station Location Temp. Windchill Dew Point Humidity Wind Precip. Elev Updated Type